Time;durP1;ratioP1;P1;durP2;ratioP2;P2;SDS_P1;SDS_P2;PMS_P1;PMS_P2;Temp;Humidity;BMP_temperature;BMP_pressure;BME280_temperature;BME280_humidity;BME280_pressure;Samples;Min_cycle;Max_cycle;Signal;HPM_P1;HPM_P2
2022/08/04 00:00:04;;;;;;;;;;;;;;;24.61;59.88;101178.44;5008347;28;20389;-61
2022/08/04 00:02:36;;;;;;;;;;;;;;;24.55;59.64;101173.22;5015403;28;20376;-61
2022/08/04 00:05:05;;;;;;;;;;;;;;;24.52;59.74;101178.66;5008317;28;19917;-60
2022/08/04 00:07:31;;;;;;;;;;;;;;;24.47;60.06;101171.66;5007724;28;19916;-61
2022/08/04 00:09:56;;;;;;;;;;;;;;;24.44;59.95;101173.56;5008301;28;20434;-61
2022/08/04 00:12:24;;;;;;;;;;;;;;;24.39;59.94;101168.38;5021072;28;19964;-61
2022/08/04 00:14:50;;;;;;;;;;;;;;;24.37;60.28;101172.84;5012599;28;20027;-61
2022/08/04 00:17:18;;;;;;;;;;;;;;;24.34;60.18;101167.63;5018729;28;19913;-61
2022/08/04 00:19:46;;;;;;;;;;;;;;;24.31;60.49;101162.38;5012733;28;19913;-61
2022/08/04 00:22:12;;;;;;;;;;;;;;;24.27;60.30;101166.03;5016601;28;19915;-61
2022/08/04 00:24:37;;;;;;;;;;;;;;;24.24;60.47;101155.47;5012628;28;19917;-60
2022/08/04 00:27:03;;;;;;;;;;;;;;;24.20;60.41;101153.81;5016057;28;19923;-61
2022/08/04 00:29:29;;;;;;;;;;;;;;;24.16;60.75;101162.81;5021946;28;20312;-61
2022/08/04 00:31:55;;;;;;;;;;;;;;;24.11;60.53;101158.50;5008609;28;19929;-61
2022/08/04 00:34:21;;;;;;;;;;;;;;;24.08;60.70;101155.91;5020663;28;20207;-61
2022/08/04 00:36:47;;;;;;;;;;;;;;;24.05;60.94;101153.31;5011700;28;19913;-61
2022/08/04 00:39:13;;;;;;;;;;;;;;;24.00;60.80;101151.72;5012206;28;19932;-61
2022/08/04 00:41:50;;;;;;;;;;;;;;;23.94;60.90;101143.00;5011259;28;20356;-60
2022/08/04 00:44:24;;;;;;;;;;;;;;;23.90;60.89;101144.00;5008735;28;19917;-61
2022/08/04 00:46:59;;;;;;;;;;;;;;;23.85;61.03;101145.00;5011933;28;19956;-61
2022/08/04 00:49:32;;;;;;;;;;;;;;;23.81;61.07;101140.66;5016572;28;19945;-61
2022/08/04 00:52:19;;;;;;;;;;;;;;;23.75;61.19;101142.59;5011824;28;19928;-61
2022/08/04 00:55:03;;;;;;;;;;;;;;;23.69;61.39;101140.06;5014757;28;19913;-61
2022/08/04 00:57:37;;;;;;;;;;;;;;;23.65;61.47;101137.53;5012151;28;19910;-61
2022/08/04 01:00:06;;;;;;;;;;;;;;;23.60;61.53;101135.84;5008147;28;19924;-61
2022/08/04 01:02:34;;;;;;;;;;;;;;;23.55;61.43;101140.44;5016739;28;19917;-61
2022/08/04 01:05:04;;;;;;;;;;;;;;;23.52;61.36;101144.97;5007524;28;20407;-60
2022/08/04 01:07:48;;;;;;;;;;;;;;;23.48;61.51;101138.84;5008323;28;19925;-61
2022/08/04 01:10:25;;;;;;;;;;;;;;;23.42;61.96;101134.56;5006961;28;20046;-61
2022/08/04 01:12:56;;;;;;;;;;;;;;;23.39;61.79;101131.97;5011815;28;19924;-61
2022/08/04 01:15:40;;;;;;;;;;;;;;;23.34;61.89;101125.91;5007324;28;19913;-60
2022/08/04 01:18:14;;;;;;;;;;;;;;;23.31;62.11;101122.47;5006698;28;19914;-61
2022/08/04 01:20:59;;;;;;;;;;;;;;;23.26;61.81;101125.25;5005929;28;19939;-61
2022/08/04 01:23:43;;;;;;;;;;;;;;;23.23;61.91;101122.63;5013651;28;20004;-61
2022/08/04 01:26:17;;;;;;;;;;;;;;;23.21;61.96;101121.81;5015061;28;20400;-61
2022/08/04 01:29:01;;;;;;;;;;;;;;;23.17;62.43;101120.13;5019741;28;19913;-61
2022/08/04 01:31:41;;;;;;;;;;;;;;;23.14;62.33;101113.09;5011395;28;19913;-61
2022/08/04 01:34:10;;;;;;;;;;;;;;;23.12;62.54;101109.59;5017198;28;19970;-61
2022/08/04 01:36:38;;;;;;;;;;;;;;;23.11;62.08;101107.00;5016682;28;20458;-61
2022/08/04 01:41:56;;;;;;;;;;;;;;;23.04;62.09;101107.13;4993227;28;20495;-61
2022/08/04 01:44:22;;;;;;;;;;;;;;;23.02;62.75;101102.75;5010303;28;19940;-61
2022/08/04 01:46:48;;;;;;;;;;;;;;;22.98;62.67;101107.25;5008510;28;20320;-61
2022/08/04 01:49:15;;;;;;;;;;;;;;;22.93;62.65;101102.03;5009023;28;19917;-61
2022/08/04 01:51:41;;;;;;;;;;;;;;;22.92;62.65;101110.06;5010263;28;19944;-61
2022/08/04 01:54:08;;;;;;;;;;;;;;;22.89;62.29;101102.16;5009309;28;19983;-61
2022/08/04 01:56:33;;;;;;;;;;;;;;;22.87;62.17;101112.81;5017340;28;19916;-61
2022/08/04 01:58:58;;;;;;;;;;;;;;;22.84;62.78;101104.94;5010451;28;19921;-61
2022/08/04 02:01:24;;;;;;;;;;;;;;;22.82;62.57;101105.88;5012781;28;19913;-61
2022/08/04 02:03:49;;;;;;;;;;;;;;;22.80;62.61;101103.25;5010737;28;19924;-60
2022/08/04 02:06:14;;;;;;;;;;;;;;;22.79;62.42;101100.63;5011737;28;19924;-61
2022/08/04 02:08:48;;;;;;;;;;;;;;;22.78;62.70;101106.84;5011963;28;19959;-61
2022/08/04 02:11:20;;;;;;;;;;;;;;;22.74;62.39;101101.59;5017148;28;19996;-61
2022/08/04 02:13:51;;;;;;;;;;;;;;;22.71;62.28;101096.38;5011359;28;19914;-60
2022/08/04 02:16:19;;;;;;;;;;;;;;;22.68;62.52;101088.47;5027923;28;20410;-60
2022/08/04 02:18:53;;;;;;;;;;;;;;;22.66;63.02;101084.97;5017340;28;19914;-60
2022/08/04 02:21:19;;;;;;;;;;;;;;;22.65;62.52;101083.22;5008878;28;19997;-60
2022/08/04 02:23:49;;;;;;;;;;;;;;;22.63;62.46;101085.03;5020450;28;19988;-60
2022/08/04 02:26:19;;;;;;;;;;;;;;;22.62;62.71;101079.75;5013071;28;19917;-61
2022/08/04 02:28:47;;;;;;;;;;;;;;;22.59;63.06;101083.34;5021079;28;19948;-60
2022/08/04 02:31:16;;;;;;;;;;;;;;;22.57;62.70;101074.56;5008252;28;19913;-60
2022/08/04 02:33:43;;;;;;;;;;;;;;;22.54;62.68;101070.19;5009620;28;20402;-61
2022/08/04 02:36:09;;;;;;;;;;;;;;;22.50;62.78;101073.81;5010292;28;19960;-60
2022/08/04 02:38:35;;;;;;;;;;;;;;;22.50;62.77;101072.94;5013894;28;19913;-60
2022/08/04 02:41:00;;;;;;;;;;;;;;;22.49;63.28;101071.19;5012477;28;19979;-60
2022/08/04 02:43:26;;;;;;;;;;;;;;;22.46;63.27;101071.25;5010518;28;20448;-61
2022/08/04 02:45:54;;;;;;;;;;;;;;;22.45;63.06;101067.75;5017207;28;19921;-60
2022/08/04 02:48:21;;;;;;;;;;;;;;;22.43;63.24;101071.34;5010042;28;19948;-61
2022/08/04 02:50:48;;;;;;;;;;;;;;;22.39;63.15;101058.13;5007248;28;19925;-61
2022/08/04 02:53:14;;;;;;;;;;;;;;;22.38;63.16;101059.03;5007193;28;19924;-60
2022/08/04 02:55:41;;;;;;;;;;;;;;;22.37;63.00;101051.97;5013526;28;20020;-60
2022/08/04 02:58:06;;;;;;;;;;;;;;;22.36;62.94;101050.25;5017823;28;19920;-60
2022/08/04 03:00:32;;;;;;;;;;;;;;;22.35;62.99;101052.94;5009117;28;19913;-60
2022/08/04 03:03:12;;;;;;;;;;;;;;;22.34;62.75;101046.72;5007712;28;19913;-60
2022/08/04 03:05:56;;;;;;;;;;;;;;;22.33;63.06;101046.75;5010566;28;20368;-60
2022/08/04 03:08:41;;;;;;;;;;;;;;;22.32;63.46;101045.91;5011773;28;19913;-60
2022/08/04 03:11:12;;;;;;;;;;;;;;;22.31;63.43;101040.59;5010358;28;19996;-60
2022/08/04 03:13:41;;;;;;;;;;;;;;;22.29;63.49;101032.66;5017015;28;19917;-61
2022/08/04 03:16:28;;;;;;;;;;;;;;;22.28;62.94;101030.03;5015216;28;20000;-60
2022/08/04 03:19:08;;;;;;;;;;;;;;;22.25;63.06;101036.28;5011014;28;19913;-60
2022/08/04 03:21:36;;;;;;;;;;;;;;;22.24;63.29;101042.50;5030391;28;19909;-60
2022/08/04 03:24:19;;;;;;;;;;;;;;;22.21;63.53;101051.38;5007658;28;19924;-60
2022/08/04 03:27:03;;;;;;;;;;;;;;;22.19;62.94;101063.84;5013217;28;19912;-60
2022/08/04 03:29:31;;;;;;;;;;;;;;;22.15;63.57;101069.25;5007906;28;19920;-60
2022/08/04 03:31:56;;;;;;;;;;;;;;;22.09;63.28;101066.69;5008421;28;20308;-60
2022/08/04 03:34:33;;;;;;;;;;;;;;;22.03;63.59;101063.28;5007602;28;19918;-60
2022/08/04 03:37:19;;;;;;;;;;;;;;;21.99;63.49;101058.94;5021482;28;19920;-60
2022/08/04 03:39:53;;;;;;;;;;;;;;;21.94;63.89;101044.03;5017435;28;20003;-60
2022/08/04 03:42:18;;;;;;;;;;;;;;;21.89;64.17;101042.31;5021217;28;19914;-60
2022/08/04 03:44:56;;;;;;;;;;;;;;;21.88;63.80;101050.31;5011377;28;19913;-60
2022/08/04 03:47:29;;;;;;;;;;;;;;;21.87;63.90;101061.84;5012979;28;20299;-60
2022/08/04 03:50:16;;;;;;;;;;;;;;;21.85;63.77;101053.03;5012338;28;19983;-60
2022/08/04 03:53:08;;;;;;;;;;;;;;;21.83;64.07;101052.22;5015041;28;20340;-60
2022/08/04 03:55:52;;;;;;;;;;;;;;;21.82;63.84;101061.91;5013118;28;19991;-60
2022/08/04 03:58:30;;;;;;;;;;;;;;;21.82;64.04;101076.97;5020045;28;20411;-60
2022/08/04 04:00:59;;;;;;;;;;;;;;;21.77;64.24;101076.19;5001200;28;19913;-60
2022/08/04 04:03:36;;;;;;;;;;;;;;;21.72;64.57;101078.91;5018089;28;19918;-61
2022/08/04 04:06:17;;;;;;;;;;;;;;;21.70;64.75;101086.91;5005951;28;19924;-61
2022/08/04 04:08:46;;;;;;;;;;;;;;;21.69;64.49;101084.28;5007177;28;19953;-61
2022/08/04 04:11:35;;;;;;;;;;;;;;;21.67;64.70;101086.97;5013291;28;19924;-61
2022/08/04 04:14:19;;;;;;;;;;;;;;;21.67;65.14;101096.72;5017606;28;19972;-61
2022/08/04 04:16:56;;;;;;;;;;;;;;;21.66;64.94;101092.31;5010740;28;19913;-61
2022/08/04 04:19:24;;;;;;;;;;;;;;;21.65;65.04;101088.78;5013852;28;19913;-61
2022/08/04 04:21:55;;;;;;;;;;;;;;;21.66;65.60;101089.66;5013324;28;19913;-61
2022/08/04 04:24:38;;;;;;;;;;;;;;;21.65;65.22;101083.50;5005636;28;20356;-60
2022/08/04 04:27:06;;;;;;;;;;;;;;;21.66;64.96;101095.81;5010317;28;19917;-61
2022/08/04 04:29:50;;;;;;;;;;;;;;;21.66;65.22;101087.88;5016398;28;19920;-61
2022/08/04 04:32:34;;;;;;;;;;;;;;;21.66;65.43;101082.56;5026529;28;20078;-61
2022/08/04 04:35:20;;;;;;;;;;;;;;;21.67;65.45;101086.97;5010574;28;19913;-61
2022/08/04 04:37:45;;;;;;;;;;;;;;;21.68;65.79;101094.03;5011172;28;19920;-60
2022/08/04 04:40:23;;;;;;;;;;;;;;;21.69;65.53;101093.09;5009676;28;19917;-61
2022/08/04 04:43:17;;;;;;;;;;;;;;;21.69;65.82;101095.75;5017255;28;19987;-61
2022/08/04 04:45:54;;;;;;;;;;;;;;;21.70;65.45;101092.22;4990681;28;19917;-61
2022/08/04 04:48:29;;;;;;;;;;;;;;;21.70;65.70;101086.06;5011055;28;20376;-61
2022/08/04 04:51:19;;;;;;;;;;;;;;;21.71;65.79;101082.50;5016796;28;19921;-61
2022/08/04 04:53:44;;;;;;;;;;;;;;;21.72;65.95;101089.53;5010140;28;19921;-61
2022/08/04 04:56:28;;;;;;;;;;;;;;;21.73;65.83;101093.09;5012049;28;20304;-61
2022/08/04 04:58:55;;;;;;;;;;;;;;;21.73;66.14;101095.72;5017122;28;20307;-60
2022/08/04 05:01:26;;;;;;;;;;;;;;;21.75;66.24;101092.13;5010494;28;19917;-61
2022/08/04 05:04:00;;;;;;;;;;;;;;;21.75;66.07;101104.53;5016311;28;19913;-61
2022/08/04 05:06:26;;;;;;;;;;;;;;;21.77;66.24;101102.69;5012961;28;19949;-61
2022/08/04 05:09:13;;;;;;;;;;;;;;;21.77;66.43;101113.31;5024702;28;20383;-61
2022/08/04 05:11:52;;;;;;;;;;;;;;;21.76;66.55;101100.97;5011153;28;19913;-61
2022/08/04 05:14:24;;;;;;;;;;;;;;;21.77;66.38;101098.28;5006794;28;20312;-61
2022/08/04 05:17:08;;;;;;;;;;;;;;;21.77;66.90;101094.75;5018546;28;19917;-61
2022/08/04 05:19:51;;;;;;;;;;;;;;;21.78;66.02;101097.38;5012845;28;20454;-61
2022/08/04 05:22:17;;;;;;;;;;;;;;;21.75;66.78;101094.78;5009195;28;20051;-61
2022/08/04 05:24:45;;;;;;;;;;;;;;;21.76;67.34;101107.16;5008567;28;19996;-61
2022/08/04 05:27:16;;;;;;;;;;;;;;;21.79;66.88;101112.38;5010257;28;19924;-61
2022/08/04 05:29:52;;;;;;;;;;;;;;;21.79;67.44;101107.09;5012229;28;20383;-61
2022/08/04 05:32:18;;;;;;;;;;;;;;;21.81;67.15;101105.28;5011886;28;19918;-61
2022/08/04 05:34:51;;;;;;;;;;;;;;;21.84;67.55;101094.63;5013008;28;19924;-61
2022/08/04 05:37:18;;;;;;;;;;;;;;;21.82;67.23;101091.09;5016130;28;19917;-61
2022/08/04 05:39:53;;;;;;;;;;;;;;;21.79;67.80;101099.13;5011281;28;19916;-61
2022/08/04 05:42:19;;;;;;;;;;;;;;;21.82;68.42;101098.19;5025239;28;19913;-61
2022/08/04 05:44:45;;;;;;;;;;;;;;;21.84;68.58;101091.06;5014734;28;19913;-61
2022/08/04 05:47:11;;;;;;;;;;;;;;;21.87;68.39;101085.75;5022638;28;19921;-61
2022/08/04 05:49:37;;;;;;;;;;;;;;;21.88;68.89;101082.16;5009882;28;20387;-61
2022/08/04 05:52:03;;;;;;;;;;;;;;;21.90;68.78;101083.03;5009248;28;19918;-61
2022/08/04 05:54:30;;;;;;;;;;;;;;;21.93;69.26;101080.28;5010538;28;19914;-61
2022/08/04 05:56:56;;;;;;;;;;;;;;;21.95;68.87;101081.13;5013811;28;19925;-61
2022/08/04 05:59:24;;;;;;;;;;;;;;;21.99;69.11;101077.50;5012039;28;19913;-61
2022/08/04 06:01:50;;;;;;;;;;;;;;;22.02;69.53;101076.59;5015841;28;19924;-61
2022/08/04 06:04:17;;;;;;;;;;;;;;;22.05;69.05;101080.03;5012924;28;20332;-61
2022/08/04 06:06:43;;;;;;;;;;;;;;;22.09;69.54;101078.22;5009829;28;20395;-61
2022/08/04 06:09:08;;;;;;;;;;;;;;;22.13;69.08;101086.97;5012190;28;19912;-61
2022/08/04 06:11:37;;;;;;;;;;;;;;;22.16;69.34;101090.44;5020706;28;20334;-61
2022/08/04 06:14:04;;;;;;;;;;;;;;;22.19;69.00;101089.53;5011935;28;19924;-61
2022/08/04 06:16:37;;;;;;;;;;;;;;;22.22;69.49;101090.31;5014113;28;19917;-61
2022/08/04 06:19:04;;;;;;;;;;;;;;;22.26;69.34;101095.56;5016382;28;19917;-61
2022/08/04 06:21:30;;;;;;;;;;;;;;;22.28;69.77;101097.28;5011584;28;19940;-61
2022/08/04 06:23:57;;;;;;;;;;;;;;;22.31;70.01;101097.22;5015276;28;19974;-61
2022/08/04 06:26:23;;;;;;;;;;;;;;;22.35;70.11;101090.09;5013749;28;19913;-61
2022/08/04 06:28:50;;;;;;;;;;;;;;;22.37;70.22;101091.78;5017095;28;19952;-61
2022/08/04 06:31:30;;;;;;;;;;;;;;;22.42;69.88;101099.69;5022337;28;20376;-61
2022/08/04 06:33:56;;;;;;;;;;;;;;;22.46;69.59;101097.81;5017643;28;19917;-61
2022/08/04 06:36:21;;;;;;;;;;;;;;;22.50;69.63;101102.16;5024963;28;19943;-60
2022/08/04 06:38:47;;;;;;;;;;;;;;;22.54;69.48;101101.19;5010992;28;19913;-61
2022/08/04 06:41:12;;;;;;;;;;;;;;;22.58;69.71;101108.19;5005884;28;19956;-60
2022/08/04 06:43:38;;;;;;;;;;;;;;;22.62;70.16;101111.63;5012570;28;19913;-61
2022/08/04 06:46:03;;;;;;;;;;;;;;;22.66;70.15;101116.84;5021654;28;19953;-61
2022/08/04 06:48:30;;;;;;;;;;;;;;;22.72;70.31;101113.16;5020712;28;19917;-61
2022/08/04 06:50:57;;;;;;;;;;;;;;;22.79;70.29;101109.47;5023083;28;19909;-61
2022/08/04 06:53:22;;;;;;;;;;;;;;;22.86;70.23;101116.38;5010973;28;19921;-61
2022/08/04 06:55:48;;;;;;;;;;;;;;;22.93;70.36;101119.78;5013340;28;19964;-61
2022/08/04 06:58:14;;;;;;;;;;;;;;;22.98;69.98;101117.88;5015581;28;19913;-60
2022/08/04 07:00:40;;;;;;;;;;;;;;;23.04;69.83;101122.16;5020489;28;19913;-61
2022/08/04 07:03:06;;;;;;;;;;;;;;;23.07;69.58;101120.34;5013115;28;20015;-61
2022/08/04 07:05:31;;;;;;;;;;;;;;;23.12;69.77;101117.59;5010062;28;20013;-61
2022/08/04 07:07:57;;;;;;;;;;;;;;;23.15;69.42;101114.84;5006129;28;20007;-61
2022/08/04 07:10:23;;;;;;;;;;;;;;;23.20;69.12;101112.06;5011195;28;19918;-61
2022/08/04 07:12:49;;;;;;;;;;;;;;;23.23;69.54;101114.66;5013592;28;19961;-61
2022/08/04 07:15:16;;;;;;;;;;;;;;;23.27;69.58;101116.31;5008632;28;19975;-61
2022/08/04 07:17:42;;;;;;;;;;;;;;;23.30;69.50;101116.25;5017644;28;19935;-61
2022/08/04 07:20:07;;;;;;;;;;;;;;;23.33;69.38;101120.63;5018349;28;20000;-61
2022/08/04 07:22:33;;;;;;;;;;;;;;;23.36;69.69;101117.88;5012464;28;20008;-61
2022/08/04 07:24:58;;;;;;;;;;;;;;;23.40;69.53;101120.41;5005344;28;19968;-61
2022/08/04 07:27:24;;;;;;;;;;;;;;;23.44;69.23;101127.41;5006247;28;19917;-61
2022/08/04 07:29:50;;;;;;;;;;;;;;;23.48;68.97;101122.00;5004209;28;19960;-60
2022/08/04 07:32:17;;;;;;;;;;;;;;;23.54;69.48;101127.19;5003903;28;19964;-60
2022/08/04 07:34:43;;;;;;;;;;;;;;;23.59;69.77;101134.13;5013995;28;19914;-60
2022/08/04 07:37:08;;;;;;;;;;;;;;;23.63;69.59;101134.91;5005089;28;20343;-60
2022/08/04 07:39:35;;;;;;;;;;;;;;;23.68;68.74;101135.69;5014050;28;19967;-60
2022/08/04 07:42:01;;;;;;;;;;;;;;;23.72;69.23;101132.03;5014781;28;19918;-60
2022/08/04 07:44:26;;;;;;;;;;;;;;;23.77;68.85;101124.78;5007352;28;19914;-60
2022/08/04 07:46:52;;;;;;;;;;;;;;;23.82;68.81;101126.44;5012719;28;19921;-60
2022/08/04 07:49:19;;;;;;;;;;;;;;;23.87;68.58;101130.78;5009508;28;19953;-57
2022/08/04 07:51:44;;;;;;;;;;;;;;;23.93;69.07;101127.06;5014747;28;19936;-60
2022/08/04 07:54:09;;;;;;;;;;;;;;;24.00;68.76;101125.09;5010571;28;20381;-60
2022/08/04 07:56:35;;;;;;;;;;;;;;;24.05;68.54;101129.38;5010138;28;20384;-60
2022/08/04 07:59:02;;;;;;;;;;;;;;;24.11;68.15;101123.91;5023297;28;19920;-59
2022/08/04 08:01:27;;;;;;;;;;;;;;;24.16;68.17;101134.41;5013726;28;19914;-60
2022/08/04 08:03:54;;;;;;;;;;;;;;;24.22;68.53;101133.38;5015142;28;19921;-60
2022/08/04 08:06:19;;;;;;;;;;;;;;;24.28;68.21;101133.19;5012440;28;19921;-60
2022/08/04 08:08:44;;;;;;;;;;;;;;;24.35;68.41;101134.75;5012897;28;19935;-60
2022/08/04 08:11:10;;;;;;;;;;;;;;;24.43;68.61;101139.84;5016201;28;20288;-60
2022/08/04 08:13:35;;;;;;;;;;;;;;;24.48;68.45;101149.44;5028541;28;19920;-60
2022/08/04 08:16:01;;;;;;;;;;;;;;;24.56;68.44;101154.53;5016842;28;20360;-60
2022/08/04 08:18:26;;;;;;;;;;;;;;;24.64;68.01;101152.53;5011468;28;20579;-60
2022/08/04 08:20:52;;;;;;;;;;;;;;;24.71;67.57;101145.25;5016251;28;19940;-60
2022/08/04 08:23:17;;;;;;;;;;;;;;;24.79;67.36;101153.84;5017582;28;20361;-60
2022/08/04 08:25:42;;;;;;;;;;;;;;;24.89;67.32;101149.13;5028816;28;19967;-60
2022/08/04 08:28:07;;;;;;;;;;;;;;;24.96;67.25;101150.69;5018446;28;20353;-60
2022/08/04 08:30:33;;;;;;;;;;;;;;;25.06;67.51;101161.06;5017766;28;20364;-59
2022/08/04 08:32:59;;;;;;;;;;;;;;;25.15;67.38;101158.09;5018569;28;20297;-60
2022/08/04 08:35:27;;;;;;;;;;;;;;;25.24;67.48;101154.25;5014158;28;19909;-59
2022/08/04 08:37:59;;;;;;;;;;;;;;;25.31;67.21;101154.03;5018632;28;19920;-59
2022/08/04 08:40:24;;;;;;;;;;;;;;;25.37;66.20;101160.94;5013448;28;20403;-59
2022/08/04 08:42:59;;;;;;;;;;;;;;;25.42;66.27;101168.78;5010049;28;19921;-59
2022/08/04 08:45:51;;;;;;;;;;;;;;;25.46;65.86;101176.69;5013221;28;20393;-60
2022/08/04 08:48:39;;;;;;;;;;;;;;;25.54;65.71;101175.53;4997542;28;19917;-60
2022/08/04 08:51:30;;;;;;;;;;;;;;;25.61;65.39;101175.28;5021457;28;19912;-60
2022/08/04 08:53:55;;;;;;;;;;;;;;;25.67;63.10;101176.88;5009509;28;19917;-61
2022/08/04 08:56:29;;;;;;;;;;;;;;;25.77;63.83;101180.97;5011282;28;20343;-59
2022/08/04 08:59:11;;;;;;;;;;;;;;;25.88;62.98;101182.38;5007807;28;19967;-59
2022/08/04 09:01:46;;;;;;;;;;;;;;;25.97;63.54;101187.38;5011392;28;19944;-60
2022/08/04 09:04:13;;;;;;;;;;;;;;;26.08;62.84;101173.69;5011014;28;20387;-61
2022/08/04 09:06:57;;;;;;;;;;;;;;;26.17;63.05;101179.59;5016789;28;20011;-60
2022/08/04 09:09:40;;;;;;;;;;;;;;;26.24;62.14;101185.56;5009834;28;19928;-60
2022/08/04 09:12:11;;;;;;;;;;;;;;;26.30;61.25;101184.47;5008240;28;19924;-60
2022/08/04 09:14:57;;;;;;;;;;;;;;;26.34;60.23;101200.31;5015183;28;19917;-60
2022/08/04 09:17:36;;;;;;;;;;;;;;;26.40;61.71;101191.19;5010312;28;20004;-60
2022/08/04 09:20:04;;;;;;;;;;;;;;;26.46;61.29;101193.66;5008703;28;19921;-60
2022/08/04 09:22:35;;;;;;;;;;;;;;;26.51;61.29;101190.81;5007755;28;19964;-60
2022/08/04 09:25:06;;;;;;;;;;;;;;;26.57;60.61;101190.56;5009895;28;19913;-59
2022/08/04 09:27:40;;;;;;;;;;;;;;;26.63;61.18;101201.03;5009512;28;19917;-61
2022/08/04 09:30:07;;;;;;;;;;;;;;;26.68;60.61;101192.88;5007858;28;19920;-59
2022/08/04 09:32:42;;;;;;;;;;;;;;;26.73;60.97;101197.09;5012322;28;19922;-60
2022/08/04 09:35:20;;;;;;;;;;;;;;;26.77;60.84;101205.03;5017805;28;19919;-60
2022/08/04 09:37:46;;;;;;;;;;;;;;;26.80;61.27;101204.91;5019306;28;19940;-60
2022/08/04 09:40:12;;;;;;;;;;;;;;;26.83;60.98;101211.00;5020784;28;20307;-60
2022/08/04 09:42:46;;;;;;;;;;;;;;;26.83;60.88;101219.00;5010156;28;19922;-62
2022/08/04 09:45:13;;;;;;;;;;;;;;;26.83;60.41;101218.16;5016567;28;19913;-60
2022/08/04 09:47:52;;;;;;;;;;;;;;;26.79;58.75;101222.72;5014475;28;19912;-59
2022/08/04 09:50:36;;;;;;;;;;;;;;;26.78;59.96;101236.16;5010413;28;20441;-59
2022/08/04 09:53:20;;;;;;;;;;;;;;;26.73;59.08;101237.19;5011275;28;19945;-60
2022/08/04 09:55:45;;;;;;;;;;;;;;;26.72;58.60;101239.94;5009559;28;19913;-61
2022/08/04 09:58:21;;;;;;;;;;;;;;;26.71;58.69;101233.72;5013322;28;19910;-60
2022/08/04 10:00:48;;;;;;;;;;;;;;;26.70;59.46;101248.00;5010072;28;19925;-62
2022/08/04 10:03:15;;;;;;;;;;;;;;;26.71;59.03;101259.59;5011478;28;19913;-60
2022/08/04 10:05:40;;;;;;;;;;;;;;;26.70;58.54;101257.84;5009888;28;19967;-62
2022/08/04 10:08:08;;;;;;;;;;;;;;;26.66;57.92;101267.72;5016329;28;20000;-60
2022/08/04 10:10:33;;;;;;;;;;;;;;;26.66;58.24;101256.19;5014781;28;19924;-61
2022/08/04 10:13:22;;;;;;;;;;;;;;;26.63;57.67;101256.31;5013623;28;20304;-61
2022/08/04 10:15:47;;;;;;;;;;;;;;;26.58;58.03;101242.22;5014342;28;19913;-62
2022/08/04 10:18:12;;;;;;;;;;;;;;;26.54;59.52;101246.81;5016065;28;19916;-62
2022/08/04 10:20:56;;;;;;;;;;;;;;;26.50;59.18;101269.25;5014659;28;19906;-62
2022/08/04 10:23:27;;;;;;;;;;;;;;;26.41;58.76;101315.88;5008881;28;19917;-61
2022/08/04 10:25:53;;;;;;;;;;;;;;;26.31;58.66;101342.03;5010001;28;20022;-59
2022/08/04 10:28:20;;;;;;;;;;;;;;;26.21;59.52;101353.97;5024496;28;19995;-62
2022/08/04 10:30:50;;;;;;;;;;;;;;;26.13;59.96;101351.56;5013088;28;19988;-60
2022/08/04 10:33:29;;;;;;;;;;;;;;;26.07;60.95;101326.84;5013321;28;19929;-60
2022/08/04 10:36:03;;;;;;;;;;;;;;;25.99;61.78;101332.41;5013102;28;20369;-59
2022/08/04 10:41:19;;;;;;;;;;;;;;;25.85;64.21;101306.16;5042930;28;19921;-67
2022/08/04 10:44:02;;;;;;;;;;;;;;;25.79;63.83;101293.88;5048179;28;20429;-67
2022/08/04 10:46:36;;;;;;;;;;;;;;;25.77;64.64;101265.53;5049652;28;19944;-68
2022/08/04 10:49:03;;;;;;;;;;;;;;;25.75;65.55;101254.00;5050986;28;19913;-66
2022/08/04 10:51:32;;;;;;;;;;;;;;;25.73;65.46;101242.50;5054080;28;20131;-66
2022/08/04 10:54:20;;;;;;;;;;;;;;;25.69;65.77;101239.94;5041921;28;20007;-66
2022/08/04 10:56:55;;;;;;;;;;;;;;;25.67;66.58;101248.94;5041835;28;20524;-67
2022/08/04 10:59:31;;;;;;;;;;;;;;;25.65;67.84;101253.41;5042247;28;20007;-66
2022/08/04 11:02:01;;;;;;;;;;;;;;;25.64;68.81;101244.56;5041611;28;20300;-66
2022/08/04 11:04:45;;;;;;;;;;;;;;;25.68;68.33;101256.03;5042369;28;19912;-66
2022/08/04 11:07:11;;;;;;;;;;;;;;;25.74;69.23;101277.16;5044004;28;19917;-66
2022/08/04 11:09:39;;;;;;;;;;;;;;;25.76;69.55;101291.31;5041220;28;20020;-66
2022/08/04 11:12:16;;;;;;;;;;;;;;;25.75;69.67;101284.25;5041707;28;19931;-66
2022/08/04 11:15:03;;;;;;;;;;;;;;;25.73;69.20;101274.53;5041418;28;20371;-66
2022/08/04 11:17:34;;;;;;;;;;;;;;;25.69;68.59;101265.75;5044020;28;20272;-67
2022/08/04 11:20:00;;;;;;;;;;;;;;;25.65;69.32;101258.75;5042898;28;19935;-66
2022/08/04 11:22:25;;;;;;;;;;;;;;;25.60;69.34;101256.25;5039032;28;20379;-67
2022/08/04 11:25:10;;;;;;;;;;;;;;;25.57;68.73;101263.50;5043965;28;20098;-67
2022/08/04 11:27:44;;;;;;;;;;;;;;;25.52;68.98;101259.19;5040373;28;19912;-67
2022/08/04 11:30:11;;;;;;;;;;;;;;;25.49;69.71;101256.63;5040514;28;20046;-67
2022/08/04 11:32:41;;;;;;;;;;;;;;;25.51;68.88;101256.56;5040881;28;20046;-67
2022/08/04 11:35:10;;;;;;;;;;;;;;;25.54;69.75;101250.25;5041827;28;19948;-67
2022/08/04 11:37:45;;;;;;;;;;;;;;;25.56;69.92;101257.28;5042071;28;20007;-67
2022/08/04 11:40:22;;;;;;;;;;;;;;;25.60;69.94;101258.91;5040970;28;19920;-67
2022/08/04 11:42:52;;;;;;;;;;;;;;;25.71;69.69;101255.91;5040557;28;19920;-67
2022/08/04 11:45:23;;;;;;;;;;;;;;;25.77;68.40;101258.38;5042657;28;19912;-66
2022/08/04 11:48:05;;;;;;;;;;;;;;;25.85;67.26;101264.34;5041003;28;19982;-66
2022/08/04 11:50:44;;;;;;;;;;;;;;;25.92;66.95;101269.47;5045404;28;19962;-66
2022/08/04 11:53:16;;;;;;;;;;;;;;;25.97;66.37;101263.03;5040388;28;19924;-66
2022/08/04 11:55:43;;;;;;;;;;;;;;;26.05;65.69;101260.13;5040765;28;19921;-66
2022/08/04 11:58:08;;;;;;;;;;;;;;;26.11;66.04;101264.38;5041715;28;19916;-66
2022/08/04 12:00:37;;;;;;;;;;;;;;;26.13;65.79;101260.75;5041896;28;20338;-66
2022/08/04 12:03:11;;;;;;;;;;;;;;;26.16;65.92;101265.97;5040994;28;19912;-66
2022/08/04 12:05:51;;;;;;;;;;;;;;;26.20;65.82;101259.59;5041742;28;19917;-66
2022/08/04 12:08:24;;;;;;;;;;;;;;;26.29;65.80;101263.75;5041294;28;20034;-66
2022/08/04 12:11:04;;;;;;;;;;;;;;;26.40;66.10;101270.50;5041140;28;20406;-66
2022/08/04 12:13:33;;;;;;;;;;;;;;;26.51;66.08;101269.19;5035317;28;19967;-66
2022/08/04 12:16:10;;;;;;;;;;;;;;;26.61;65.75;101268.88;5047105;28;20013;-65
2022/08/04 12:18:41;;;;;;;;;;;;;;;26.69;64.82;101272.13;5044643;28;20372;-66
2022/08/04 12:21:13;;;;;;;;;;;;;;;26.71;64.56;101271.16;5046851;28;20007;-66
2022/08/04 12:23:40;;;;;;;;;;;;;;;26.74;64.35;101275.53;5048987;28;19916;-65
2022/08/04 12:26:07;;;;;;;;;;;;;;;26.77;64.59;101283.44;5049812;28;19912;-65
2022/08/04 12:28:38;;;;;;;;;;;;;;;26.77;63.96;101288.78;5050079;28;20403;-66
2022/08/04 12:31:16;;;;;;;;;;;;;;;26.79;64.23;101294.06;5049720;28;20335;-65
2022/08/04 12:33:58;;;;;;;;;;;;;;;26.80;64.25;101301.16;5053497;28;19917;-65
2022/08/04 12:36:23;;;;;;;;;;;;;;;26.80;63.84;101299.34;5053246;28;20174;-65
2022/08/04 12:38:58;;;;;;;;;;;;;;;26.79;63.56;101300.28;5052747;28;19920;-65
2022/08/04 12:41:24;;;;;;;;;;;;;;;26.78;63.19;101303.91;5045671;28;19962;-65
2022/08/04 12:43:50;;;;;;;;;;;;;;;26.78;63.66;101303.91;5052810;28;19921;-65
2022/08/04 12:46:22;;;;;;;;;;;;;;;26.77;63.30;101312.84;5053290;28;19912;-65
2022/08/04 12:48:48;;;;;;;;;;;;;;;26.76;63.34;101316.44;5052442;28;19909;-65
2022/08/04 12:51:14;;;;;;;;;;;;;;;26.76;62.88;101313.75;5052990;28;19909;-65
2022/08/04 12:53:40;;;;;;;;;;;;;;;26.76;62.82;101316.44;5053139;28;19913;-65
2022/08/04 12:56:08;;;;;;;;;;;;;;;26.76;63.18;101319.09;5052859;28;19913;-65
2022/08/04 12:58:36;;;;;;;;;;;;;;;26.76;62.55;101321.78;5051950;28;19913;-65
2022/08/04 13:01:10;;;;;;;;;;;;;;;26.75;62.61;101322.72;5052097;28;19916;-65